sensor_id;sensor_type;location;lat;lon;timestamp;P1;durP1;ratioP1;P2;durP2;ratioP2
6117;SDS011;3089;48.202;11.510;2023-12-07T00:01:36;12.63;;;6.80;;
6117;SDS011;3089;48.202;11.510;2023-12-07T00:04:04;13.27;;;7.80;;
6117;SDS011;3089;48.202;11.510;2023-12-07T00:06:32;12.93;;;7.80;;
6117;SDS011;3089;48.202;11.510;2023-12-07T00:09:01;11.60;;;6.37;;
6117;SDS011;3089;48.202;11.510;2023-12-07T00:11:29;13.17;;;7.37;;
6117;SDS011;3089;48.202;11.510;2023-12-07T00:13:57;22.53;;;9.00;;
6117;SDS011;3089;48.202;11.510;2023-12-07T00:16:27;12.93;;;6.80;;
6117;SDS011;3089;48.202;11.510;2023-12-07T00:18:55;13.00;;;7.37;;
6117;SDS011;3089;48.202;11.510;2023-12-07T00:21:24;15.17;;;8.50;;
6117;SDS011;3089;48.202;11.510;2023-12-07T00:23:52;12.10;;;6.50;;
6117;SDS011;3089;48.202;11.510;2023-12-07T00:26:20;13.80;;;8.03;;
6117;SDS011;3089;48.202;11.510;2023-12-07T00:28:48;12.03;;;7.10;;
6117;SDS011;3089;48.202;11.510;2023-12-07T00:31:16;12.77;;;7.07;;
6117;SDS011;3089;48.202;11.510;2023-12-07T00:33:45;15.73;;;7.60;;
6117;SDS011;3089;48.202;11.510;2023-12-07T00:36:13;14.00;;;7.93;;
6117;SDS011;3089;48.202;11.510;2023-12-07T00:38:41;12.67;;;7.00;;
6117;SDS011;3089;48.202;11.510;2023-12-07T00:41:09;18.30;;;6.80;;
6117;SDS011;3089;48.202;11.510;2023-12-07T00:43:37;14.00;;;6.70;;
6117;SDS011;3089;48.202;11.510;2023-12-07T00:46:06;13.50;;;7.70;;
6117;SDS011;3089;48.202;11.510;2023-12-07T00:48:35;15.33;;;7.57;;
6117;SDS011;3089;48.202;11.510;2023-12-07T00:51:04;15.57;;;7.73;;
6117;SDS011;3089;48.202;11.510;2023-12-07T00:53:33;12.33;;;7.10;;
6117;SDS011;3089;48.202;11.510;2023-12-07T00:56:02;14.13;;;8.00;;
6117;SDS011;3089;48.202;11.510;2023-12-07T00:58:30;16.80;;;8.00;;
6117;SDS011;3089;48.202;11.510;2023-12-07T01:00:58;16.60;;;7.30;;
6117;SDS011;3089;48.202;11.510;2023-12-07T01:03:26;16.33;;;8.80;;
6117;SDS011;3089;48.202;11.510;2023-12-07T01:05:54;14.80;;;7.87;;
6117;SDS011;3089;48.202;11.510;2023-12-07T01:08:23;16.40;;;7.70;;
6117;SDS011;3089;48.202;11.510;2023-12-07T01:14:57;14.20;;;7.07;;
6117;SDS011;3089;48.202;11.510;2023-12-07T01:18:27;14.70;;;8.60;;
6117;SDS011;3089;48.202;11.510;2023-12-07T01:20:55;12.17;;;6.97;;
6117;SDS011;3089;48.202;11.510;2023-12-07T01:23:25;15.07;;;7.83;;
6117;SDS011;3089;48.202;11.510;2023-12-07T01:25:53;14.27;;;7.80;;
6117;SDS011;3089;48.202;11.510;2023-12-07T01:28:21;12.53;;;7.03;;
6117;SDS011;3089;48.202;11.510;2023-12-07T01:30:49;13.83;;;7.63;;
6117;SDS011;3089;48.202;11.510;2023-12-07T01:33:17;13.20;;;7.50;;
6117;SDS011;3089;48.202;11.510;2023-12-07T01:35:46;17.03;;;7.70;;
6117;SDS011;3089;48.202;11.510;2023-12-07T01:38:14;13.07;;;7.33;;
6117;SDS011;3089;48.202;11.510;2023-12-07T01:40:44;12.60;;;6.50;;
6117;SDS011;3089;48.202;11.510;2023-12-07T01:43:12;13.57;;;6.87;;
6117;SDS011;3089;48.202;11.510;2023-12-07T01:45:40;15.83;;;7.93;;
6117;SDS011;3089;48.202;11.510;2023-12-07T01:48:08;10.90;;;6.10;;
6117;SDS011;3089;48.202;11.510;2023-12-07T01:50:37;11.87;;;6.50;;
6117;SDS011;3089;48.202;11.510;2023-12-07T01:53:05;13.50;;;7.30;;
6117;SDS011;3089;48.202;11.510;2023-12-07T01:55:35;13.10;;;6.70;;
6117;SDS011;3089;48.202;11.510;2023-12-07T01:58:05;15.70;;;7.37;;
6117;SDS011;3089;48.202;11.510;2023-12-07T02:00:34;18.87;;;9.67;;
6117;SDS011;3089;48.202;11.510;2023-12-07T02:03:02;16.20;;;8.03;;
6117;SDS011;3089;48.202;11.510;2023-12-07T02:05:32;17.93;;;8.90;;
6117;SDS011;3089;48.202;11.510;2023-12-07T02:08:02;15.60;;;7.63;;
6117;SDS011;3089;48.202;11.510;2023-12-07T02:10:31;14.87;;;8.30;;
6117;SDS011;3089;48.202;11.510;2023-12-07T02:12:59;16.70;;;8.17;;
6117;SDS011;3089;48.202;11.510;2023-12-07T02:15:29;18.00;;;8.70;;
6117;SDS011;3089;48.202;11.510;2023-12-07T02:17:58;19.00;;;8.93;;
6117;SDS011;3089;48.202;11.510;2023-12-07T02:20:35;15.40;;;7.90;;
6117;SDS011;3089;48.202;11.510;2023-12-07T02:23:07;15.20;;;8.30;;
6117;SDS011;3089;48.202;11.510;2023-12-07T02:25:36;15.03;;;7.80;;
6117;SDS011;3089;48.202;11.510;2023-12-07T02:28:10;16.13;;;8.43;;
6117;SDS011;3089;48.202;11.510;2023-12-07T02:30:38;17.40;;;9.47;;
6117;SDS011;3089;48.202;11.510;2023-12-07T02:33:06;17.93;;;9.07;;
6117;SDS011;3089;48.202;11.510;2023-12-07T02:35:35;16.30;;;9.20;;
6117;SDS011;3089;48.202;11.510;2023-12-07T02:38:04;15.30;;;8.83;;
6117;SDS011;3089;48.202;11.510;2023-12-07T02:40:33;18.10;;;8.47;;
6117;SDS011;3089;48.202;11.510;2023-12-07T02:43:02;17.87;;;8.70;;
6117;SDS011;3089;48.202;11.510;2023-12-07T02:45:33;18.13;;;8.63;;
6117;SDS011;3089;48.202;11.510;2023-12-07T02:48:01;17.50;;;9.30;;
6117;SDS011;3089;48.202;11.510;2023-12-07T02:50:30;18.47;;;8.37;;
6117;SDS011;3089;48.202;11.510;2023-12-07T02:52:58;15.57;;;7.97;;
6117;SDS011;3089;48.202;11.510;2023-12-07T02:55:26;13.97;;;7.60;;
6117;SDS011;3089;48.202;11.510;2023-12-07T02:57:54;16.17;;;8.40;;
6117;SDS011;3089;48.202;11.510;2023-12-07T03:00:23;16.07;;;8.33;;
6117;SDS011;3089;48.202;11.510;2023-12-07T03:02:53;13.83;;;7.90;;
6117;SDS011;3089;48.202;11.510;2023-12-07T03:05:21;15.70;;;8.10;;
6117;SDS011;3089;48.202;11.510;2023-12-07T03:07:49;14.00;;;8.33;;
6117;SDS011;3089;48.202;11.510;2023-12-07T03:10:18;15.37;;;7.70;;
6117;SDS011;3089;48.202;11.510;2023-12-07T03:12:47;16.00;;;8.40;;
6117;SDS011;3089;48.202;11.510;2023-12-07T03:15:15;14.83;;;7.17;;
6117;SDS011;3089;48.202;11.510;2023-12-07T03:17:43;14.90;;;7.67;;
6117;SDS011;3089;48.202;11.510;2023-12-07T03:20:13;14.83;;;7.87;;
6117;SDS011;3089;48.202;11.510;2023-12-07T03:22:41;15.50;;;8.30;;
6117;SDS011;3089;48.202;11.510;2023-12-07T03:25:09;14.50;;;8.30;;
6117;SDS011;3089;48.202;11.510;2023-12-07T03:27:38;18.70;;;8.60;;
6117;SDS011;3089;48.202;11.510;2023-12-07T03:30:06;14.33;;;7.50;;
6117;SDS011;3089;48.202;11.510;2023-12-07T03:32:34;17.97;;;8.50;;
6117;SDS011;3089;48.202;11.510;2023-12-07T03:35:03;16.83;;;8.23;;
6117;SDS011;3089;48.202;11.510;2023-12-07T03:37:33;12.27;;;7.33;;
6117;SDS011;3089;48.202;11.510;2023-12-07T03:40:01;16.73;;;7.87;;
6117;SDS011;3089;48.202;11.510;2023-12-07T03:42:31;16.90;;;8.53;;
6117;SDS011;3089;48.202;11.510;2023-12-07T03:45:19;20.47;;;9.47;;
6117;SDS011;3089;48.202;11.510;2023-12-07T03:47:47;17.60;;;7.90;;
6117;SDS011;3089;48.202;11.510;2023-12-07T03:50:15;15.40;;;7.67;;
6117;SDS011;3089;48.202;11.510;2023-12-07T03:52:45;21.03;;;9.13;;
6117;SDS011;3089;48.202;11.510;2023-12-07T03:55:13;12.90;;;6.80;;
6117;SDS011;3089;48.202;11.510;2023-12-07T03:57:41;14.40;;;7.40;;
6117;SDS011;3089;48.202;11.510;2023-12-07T04:00:10;16.03;;;7.33;;
6117;SDS011;3089;48.202;11.510;2023-12-07T04:02:39;15.93;;;7.07;;
6117;SDS011;3089;48.202;11.510;2023-12-07T04:05:07;12.90;;;7.50;;
6117;SDS011;3089;48.202;11.510;2023-12-07T04:07:36;15.40;;;7.87;;
6117;SDS011;3089;48.202;11.510;2023-12-07T04:10:06;12.17;;;6.80;;
6117;SDS011;3089;48.202;11.510;2023-12-07T04:12:35;11.67;;;6.47;;
6117;SDS011;3089;48.202;11.510;2023-12-07T04:15:03;13.73;;;7.20;;
6117;SDS011;3089;48.202;11.510;2023-12-07T04:17:32;15.13;;;7.90;;
6117;SDS011;3089;48.202;11.510;2023-12-07T04:20:00;15.73;;;7.13;;
6117;SDS011;3089;48.202;11.510;2023-12-07T04:22:29;12.10;;;6.67;;
6117;SDS011;3089;48.202;11.510;2023-12-07T04:24:57;13.93;;;6.43;;
6117;SDS011;3089;48.202;11.510;2023-12-07T04:27:27;14.47;;;7.57;;
6117;SDS011;3089;48.202;11.510;2023-12-07T04:29:55;14.67;;;6.93;;
6117;SDS011;3089;48.202;11.510;2023-12-07T04:32:23;17.63;;;7.97;;
6117;SDS011;3089;48.202;11.510;2023-12-07T04:34:52;14.03;;;6.40;;
6117;SDS011;3089;48.202;11.510;2023-12-07T04:37:21;13.07;;;7.57;;
6117;SDS011;3089;48.202;11.510;2023-12-07T04:39:49;12.70;;;6.40;;
6117;SDS011;3089;48.202;11.510;2023-12-07T04:42:17;14.13;;;6.60;;
6117;SDS011;3089;48.202;11.510;2023-12-07T04:44:47;12.33;;;6.47;;
6117;SDS011;3089;48.202;11.510;2023-12-07T04:47:15;13.67;;;7.57;;
6117;SDS011;3089;48.202;11.510;2023-12-07T04:49:43;14.33;;;6.93;;
6117;SDS011;3089;48.202;11.510;2023-12-07T04:52:12;12.20;;;6.53;;
6117;SDS011;3089;48.202;11.510;2023-12-07T04:54:40;13.77;;;6.97;;
6117;SDS011;3089;48.202;11.510;2023-12-07T04:57:08;15.07;;;6.97;;
6117;SDS011;3089;48.202;11.510;2023-12-07T04:59:36;14.47;;;7.47;;
6117;SDS011;3089;48.202;11.510;2023-12-07T05:02:07;14.73;;;7.67;;
6117;SDS011;3089;48.202;11.510;2023-12-07T05:04:35;13.10;;;6.90;;
6117;SDS011;3089;48.202;11.510;2023-12-07T05:07:03;15.33;;;7.80;;
6117;SDS011;3089;48.202;11.510;2023-12-07T05:09:31;13.80;;;7.00;;
6117;SDS011;3089;48.202;11.510;2023-12-07T05:12:00;14.20;;;7.03;;
6117;SDS011;3089;48.202;11.510;2023-12-07T05:14:28;18.23;;;7.93;;
6117;SDS011;3089;48.202;11.510;2023-12-07T05:16:57;14.80;;;6.97;;
6117;SDS011;3089;48.202;11.510;2023-12-07T05:19:27;12.30;;;6.90;;
6117;SDS011;3089;48.202;11.510;2023-12-07T05:21:55;17.83;;;7.10;;
6117;SDS011;3089;48.202;11.510;2023-12-07T05:24:23;13.50;;;6.70;;
6117;SDS011;3089;48.202;11.510;2023-12-07T05:26:51;13.30;;;7.00;;
6117;SDS011;3089;48.202;11.510;2023-12-07T05:29:19;12.80;;;6.87;;
6117;SDS011;3089;48.202;11.510;2023-12-07T05:31:48;12.00;;;6.70;;
6117;SDS011;3089;48.202;11.510;2023-12-07T05:34:17;16.57;;;7.10;;
6117;SDS011;3089;48.202;11.510;2023-12-07T05:36:47;11.63;;;6.60;;
6117;SDS011;3089;48.202;11.510;2023-12-07T05:39:15;13.07;;;6.70;;
6117;SDS011;3089;48.202;11.510;2023-12-07T05:41:43;12.13;;;6.40;;
6117;SDS011;3089;48.202;11.510;2023-12-07T05:44:13;15.60;;;6.23;;
6117;SDS011;3089;48.202;11.510;2023-12-07T05:46:48;11.30;;;6.27;;
6117;SDS011;3089;48.202;11.510;2023-12-07T05:49:16;17.83;;;6.77;;
6117;SDS011;3089;48.202;11.510;2023-12-07T05:51:46;12.47;;;6.80;;
6117;SDS011;3089;48.202;11.510;2023-12-07T05:54:15;15.00;;;6.63;;
6117;SDS011;3089;48.202;11.510;2023-12-07T05:56:43;13.57;;;7.47;;
6117;SDS011;3089;48.202;11.510;2023-12-07T05:59:12;16.57;;;8.47;;
6117;SDS011;3089;48.202;11.510;2023-12-07T06:01:40;12.27;;;6.17;;
6117;SDS011;3089;48.202;11.510;2023-12-07T06:04:09;11.40;;;5.80;;
6117;SDS011;3089;48.202;11.510;2023-12-07T06:06:38;19.60;;;7.00;;
6117;SDS011;3089;48.202;11.510;2023-12-07T06:09:08;15.17;;;7.17;;
6117;SDS011;3089;48.202;11.510;2023-12-07T06:11:37;12.10;;;6.43;;
6117;SDS011;3089;48.202;11.510;2023-12-07T06:14:05;14.70;;;6.10;;
6117;SDS011;3089;48.202;11.510;2023-12-07T06:16:33;13.47;;;6.53;;
6117;SDS011;3089;48.202;11.510;2023-12-07T06:19:03;15.23;;;6.73;;
6117;SDS011;3089;48.202;11.510;2023-12-07T06:21:31;12.63;;;6.23;;
6117;SDS011;3089;48.202;11.510;2023-12-07T06:24:00;11.93;;;6.00;;
6117;SDS011;3089;48.202;11.510;2023-12-07T06:26:29;10.40;;;5.40;;
6117;SDS011;3089;48.202;11.510;2023-12-07T06:28:57;13.33;;;6.47;;
6117;SDS011;3089;48.202;11.510;2023-12-07T06:31:26;10.93;;;5.23;;
6117;SDS011;3089;48.202;11.510;2023-12-07T06:33:54;15.60;;;7.10;;
6117;SDS011;3089;48.202;11.510;2023-12-07T06:36:22;12.80;;;5.90;;
6117;SDS011;3089;48.202;11.510;2023-12-07T06:38:52;13.00;;;6.73;;
6117;SDS011;3089;48.202;11.510;2023-12-07T06:41:21;13.63;;;6.10;;
6117;SDS011;3089;48.202;11.510;2023-12-07T06:43:50;12.75;;;6.45;;
6117;SDS011;3089;48.202;11.510;2023-12-07T06:46:22;11.70;;;6.17;;
6117;SDS011;3089;48.202;11.510;2023-12-07T06:48:50;12.53;;;5.53;;
6117;SDS011;3089;48.202;11.510;2023-12-07T06:51:18;12.33;;;5.47;;
6117;SDS011;3089;48.202;11.510;2023-12-07T06:53:45;9.70;;;5.23;;
6117;SDS011;3089;48.202;11.510;2023-12-07T06:56:14;15.10;;;7.00;;
6117;SDS011;3089;48.202;11.510;2023-12-07T06:58:42;10.93;;;4.87;;
6117;SDS011;3089;48.202;11.510;2023-12-07T07:01:11;10.90;;;5.47;;
6117;SDS011;3089;48.202;11.510;2023-12-07T07:03:41;9.70;;;5.50;;
6117;SDS011;3089;48.202;11.510;2023-12-07T07:06:09;11.13;;;5.03;;
6117;SDS011;3089;48.202;11.510;2023-12-07T07:08:38;12.10;;;5.97;;
6117;SDS011;3089;48.202;11.510;2023-12-07T07:11:09;12.43;;;5.77;;
6117;SDS011;3089;48.202;11.510;2023-12-07T07:13:40;10.97;;;5.77;;
6117;SDS011;3089;48.202;11.510;2023-12-07T07:16:08;12.23;;;6.10;;
6117;SDS011;3089;48.202;11.510;2023-12-07T07:18:38;11.20;;;5.40;;
6117;SDS011;3089;48.202;11.510;2023-12-07T07:21:07;9.93;;;4.83;;
6117;SDS011;3089;48.202;11.510;2023-12-07T07:23:35;9.90;;;5.07;;
6117;SDS011;3089;48.202;11.510;2023-12-07T07:26:04;9.90;;;5.00;;
6117;SDS011;3089;48.202;11.510;2023-12-07T07:28:32;9.13;;;5.23;;
6117;SDS011;3089;48.202;11.510;2023-12-07T07:31:00;10.63;;;4.40;;
6117;SDS011;3089;48.202;11.510;2023-12-07T07:33:30;10.00;;;3.87;;
6117;SDS011;3089;48.202;11.510;2023-12-07T07:36:00;7.23;;;3.77;;
6117;SDS011;3089;48.202;11.510;2023-12-07T07:38:28;6.10;;;3.20;;
6117;SDS011;3089;48.202;11.510;2023-12-07T07:40:56;12.90;;;5.87;;
6117;SDS011;3089;48.202;11.510;2023-12-07T07:43:25;10.23;;;5.30;;
6117;SDS011;3089;48.202;11.510;2023-12-07T07:45:53;10.57;;;5.23;;
6117;SDS011;3089;48.202;11.510;2023-12-07T07:48:21;8.43;;;4.63;;
6117;SDS011;3089;48.202;11.510;2023-12-07T07:50:50;9.60;;;4.90;;
6117;SDS011;3089;48.202;11.510;2023-12-07T07:53:19;9.30;;;5.50;;
6117;SDS011;3089;48.202;11.510;2023-12-07T07:55:47;11.47;;;5.00;;
6117;SDS011;3089;48.202;11.510;2023-12-07T07:58:15;10.03;;;4.70;;
6117;SDS011;3089;48.202;11.510;2023-12-07T08:00:43;13.60;;;5.60;;
6117;SDS011;3089;48.202;11.510;2023-12-07T08:03:12;11.73;;;6.23;;
6117;SDS011;3089;48.202;11.510;2023-12-07T08:05:40;11.23;;;5.80;;
6117;SDS011;3089;48.202;11.510;2023-12-07T08:08:09;10.43;;;4.70;;
6117;SDS011;3089;48.202;11.510;2023-12-07T08:10:39;9.77;;;4.63;;
6117;SDS011;3089;48.202;11.510;2023-12-07T08:13:21;10.07;;;5.20;;
6117;SDS011;3089;48.202;11.510;2023-12-07T08:15:49;15.67;;;6.23;;
6117;SDS011;3089;48.202;11.510;2023-12-07T08:18:23;13.10;;;5.97;;
6117;SDS011;3089;48.202;11.510;2023-12-07T08:20:52;11.20;;;5.77;;
6117;SDS011;3089;48.202;11.510;2023-12-07T08:23:20;15.10;;;6.90;;
6117;SDS011;3089;48.202;11.510;2023-12-07T08:25:50;13.53;;;6.60;;
6117;SDS011;3089;48.202;11.510;2023-12-07T08:28:18;16.00;;;6.53;;
6117;SDS011;3089;48.202;11.510;2023-12-07T08:30:46;23.13;;;7.37;;
6117;SDS011;3089;48.202;11.510;2023-12-07T08:33:15;18.50;;;7.97;;
6117;SDS011;3089;48.202;11.510;2023-12-07T08:35:43;15.67;;;7.30;;
6117;SDS011;3089;48.202;11.510;2023-12-07T08:38:12;14.43;;;8.37;;
6117;SDS011;3089;48.202;11.510;2023-12-07T08:40:40;21.37;;;8.23;;
6117;SDS011;3089;48.202;11.510;2023-12-07T08:43:10;16.00;;;7.57;;
6117;SDS011;3089;48.202;11.510;2023-12-07T08:45:38;11.07;;;6.67;;
6117;SDS011;3089;48.202;11.510;2023-12-07T08:48:07;18.23;;;7.23;;
6117;SDS011;3089;48.202;11.510;2023-12-07T08:50:35;12.30;;;6.13;;
6117;SDS011;3089;48.202;11.510;2023-12-07T08:53:03;22.10;;;9.03;;
6117;SDS011;3089;48.202;11.510;2023-12-07T08:55:31;15.47;;;7.80;;
6117;SDS011;3089;48.202;11.510;2023-12-07T08:58:00;15.63;;;9.00;;
6117;SDS011;3089;48.202;11.510;2023-12-07T09:00:32;18.97;;;8.50;;
6117;SDS011;3089;48.202;11.510;2023-12-07T09:03:00;20.47;;;9.03;;
6117;SDS011;3089;48.202;11.510;2023-12-07T09:05:29;19.80;;;9.80;;
6117;SDS011;3089;48.202;11.510;2023-12-07T09:08:13;21.37;;;9.60;;
6117;SDS011;3089;48.202;11.510;2023-12-07T09:11:09;18.53;;;8.83;;
6117;SDS011;3089;48.202;11.510;2023-12-07T09:13:37;16.20;;;8.87;;
6117;SDS011;3089;48.202;11.510;2023-12-07T09:16:07;17.30;;;8.20;;
6117;SDS011;3089;48.202;11.510;2023-12-07T09:18:35;15.30;;;9.47;;
6117;SDS011;3089;48.202;11.510;2023-12-07T09:21:03;17.27;;;9.20;;
6117;SDS011;3089;48.202;11.510;2023-12-07T09:23:32;14.30;;;8.47;;
6117;SDS011;3089;48.202;11.510;2023-12-07T09:26:00;20.27;;;9.50;;
6117;SDS011;3089;48.202;11.510;2023-12-07T09:28:29;16.40;;;9.57;;
6117;SDS011;3089;48.202;11.510;2023-12-07T09:30:59;17.50;;;9.63;;
6117;SDS011;3089;48.202;11.510;2023-12-07T09:33:28;18.17;;;9.57;;
6117;SDS011;3089;48.202;11.510;2023-12-07T09:35:56;16.67;;;9.53;;
6117;SDS011;3089;48.202;11.510;2023-12-07T09:38:24;18.87;;;9.57;;
6117;SDS011;3089;48.202;11.510;2023-12-07T09:40:52;16.70;;;7.90;;
6117;SDS011;3089;48.202;11.510;2023-12-07T09:43:21;16.27;;;9.10;;
6117;SDS011;3089;48.202;11.510;2023-12-07T09:45:49;18.83;;;9.03;;
6117;SDS011;3089;48.202;11.510;2023-12-07T09:48:21;15.60;;;8.43;;
6117;SDS011;3089;48.202;11.510;2023-12-07T09:50:52;16.40;;;9.30;;
6117;SDS011;3089;48.202;11.510;2023-12-07T09:53:22;21.17;;;9.20;;
6117;SDS011;3089;48.202;11.510;2023-12-07T09:55:49;16.23;;;8.07;;
6117;SDS011;3089;48.202;11.510;2023-12-07T09:58:17;21.43;;;9.30;;
6117;SDS011;3089;48.202;11.510;2023-12-07T10:00:57;22.93;;;8.27;;
6117;SDS011;3089;48.202;11.510;2023-12-07T10:03:25;15.13;;;8.10;;
6117;SDS011;3089;48.202;11.510;2023-12-07T10:05:55;18.40;;;8.23;;
6117;SDS011;3089;48.202;11.510;2023-12-07T10:08:25;18.40;;;9.70;;
6117;SDS011;3089;48.202;11.510;2023-12-07T10:11:01;16.00;;;8.17;;
6117;SDS011;3089;48.202;11.510;2023-12-07T10:13:31;16.23;;;9.47;;
6117;SDS011;3089;48.202;11.510;2023-12-07T10:16:07;22.40;;;9.27;;
6117;SDS011;3089;48.202;11.510;2023-12-07T10:18:37;16.07;;;9.00;;
6117;SDS011;3089;48.202;11.510;2023-12-07T10:21:11;17.37;;;8.80;;
6117;SDS011;3089;48.202;11.510;2023-12-07T10:23:41;18.90;;;8.50;;
6117;SDS011;3089;48.202;11.510;2023-12-07T10:26:13;19.20;;;9.73;;
6117;SDS011;3089;48.202;11.510;2023-12-07T10:28:48;18.00;;;8.77;;
6117;SDS011;3089;48.202;11.510;2023-12-07T10:31:19;19.60;;;9.03;;
6117;SDS011;3089;48.202;11.510;2023-12-07T10:33:48;16.67;;;8.83;;
6117;SDS011;3089;48.202;11.510;2023-12-07T10:36:19;25.17;;;10.53;;
6117;SDS011;3089;48.202;11.510;2023-12-07T10:38:47;20.80;;;9.57;;
6117;SDS011;3089;48.202;11.510;2023-12-07T10:41:18;20.33;;;7.80;;
6117;SDS011;3089;48.202;11.510;2023-12-07T10:43:48;18.73;;;9.13;;
6117;SDS011;3089;48.202;11.510;2023-12-07T10:46:20;16.70;;;7.70;;
6117;SDS011;3089;48.202;11.510;2023-12-07T10:48:51;19.23;;;8.90;;
6117;SDS011;3089;48.202;11.510;2023-12-07T10:51:26;19.07;;;8.73;;
6117;SDS011;3089;48.202;11.510;2023-12-07T10:53:58;19.17;;;9.07;;
6117;SDS011;3089;48.202;11.510;2023-12-07T10:56:32;18.80;;;8.73;;
6117;SDS011;3089;48.202;11.510;2023-12-07T10:59:07;19.00;;;7.37;;
6117;SDS011;3089;48.202;11.510;2023-12-07T11:01:45;20.33;;;7.50;;
6117;SDS011;3089;48.202;11.510;2023-12-07T11:04:14;19.63;;;6.90;;
6117;SDS011;3089;48.202;11.510;2023-12-07T11:06:46;13.20;;;6.70;;
6117;SDS011;3089;48.202;11.510;2023-12-07T11:09:19;15.00;;;6.63;;
6117;SDS011;3089;48.202;11.510;2023-12-07T11:11:56;19.73;;;7.17;;
6117;SDS011;3089;48.202;11.510;2023-12-07T11:14:28;12.40;;;6.40;;
6117;SDS011;3089;48.202;11.510;2023-12-07T11:16:57;15.00;;;5.50;;
6117;SDS011;3089;48.202;11.510;2023-12-07T11:19:46;18.87;;;6.40;;
6117;SDS011;3089;48.202;11.510;2023-12-07T11:22:16;12.53;;;5.83;;
6117;SDS011;3089;48.202;11.510;2023-12-07T11:24:53;13.40;;;6.50;;
6117;SDS011;3089;48.202;11.510;2023-12-07T11:27:24;12.37;;;5.77;;
6117;SDS011;3089;48.202;11.510;2023-12-07T11:29:52;13.90;;;6.87;;
6117;SDS011;3089;48.202;11.510;2023-12-07T11:32:20;14.33;;;6.57;;
6117;SDS011;3089;48.202;11.510;2023-12-07T11:34:54;18.00;;;6.20;;
6117;SDS011;3089;48.202;11.510;2023-12-07T11:37:59;12.37;;;6.27;;
6117;SDS011;3089;48.202;11.510;2023-12-07T11:40:29;17.63;;;7.50;;
6117;SDS011;3089;48.202;11.510;2023-12-07T11:42:59;13.83;;;6.57;;
6117;SDS011;3089;48.202;11.510;2023-12-07T11:45:41;19.97;;;8.50;;
6117;SDS011;3089;48.202;11.510;2023-12-07T11:48:15;14.63;;;7.33;;
6117;SDS011;3089;48.202;11.510;2023-12-07T11:50:54;15.60;;;8.13;;
6117;SDS011;3089;48.202;11.510;2023-12-07T11:53:28;18.40;;;8.70;;
6117;SDS011;3089;48.202;11.510;2023-12-07T11:55:58;18.33;;;7.30;;
6117;SDS011;3089;48.202;11.510;2023-12-07T11:58:27;15.00;;;8.47;;
6117;SDS011;3089;48.202;11.510;2023-12-07T12:00:57;18.73;;;6.70;;
6117;SDS011;3089;48.202;11.510;2023-12-07T12:03:26;18.40;;;7.77;;
6117;SDS011;3089;48.202;11.510;2023-12-07T12:05:55;20.40;;;7.50;;
6117;SDS011;3089;48.202;11.510;2023-12-07T12:08:24;21.70;;;8.30;;
6117;SDS011;3089;48.202;11.510;2023-12-07T12:10:53;12.57;;;7.33;;
6117;SDS011;3089;48.202;11.510;2023-12-07T12:13:26;14.20;;;7.17;;
6117;SDS011;3089;48.202;11.510;2023-12-07T12:15:56;16.03;;;7.90;;
6117;SDS011;3089;48.202;11.510;2023-12-07T12:18:29;16.17;;;7.67;;
6117;SDS011;3089;48.202;11.510;2023-12-07T12:20:59;16.80;;;7.27;;
6117;SDS011;3089;48.202;11.510;2023-12-07T12:23:28;22.67;;;9.23;;
6117;SDS011;3089;48.202;11.510;2023-12-07T12:25:57;23.63;;;7.60;;
6117;SDS011;3089;48.202;11.510;2023-12-07T12:28:26;18.10;;;7.90;;
6117;SDS011;3089;48.202;11.510;2023-12-07T12:30:54;19.87;;;7.00;;
6117;SDS011;3089;48.202;11.510;2023-12-07T12:33:23;16.07;;;7.00;;
6117;SDS011;3089;48.202;11.510;2023-12-07T12:36:00;14.40;;;7.43;;
6117;SDS011;3089;48.202;11.510;2023-12-07T12:38:33;9.00;;;5.37;;
6117;SDS011;3089;48.202;11.510;2023-12-07T12:41:10;10.53;;;4.30;;
6117;SDS011;3089;48.202;11.510;2023-12-07T12:43:40;10.50;;;4.13;;
6117;SDS011;3089;48.202;11.510;2023-12-07T12:46:09;8.50;;;4.50;;
6117;SDS011;3089;48.202;11.510;2023-12-07T12:48:51;8.73;;;3.90;;
6117;SDS011;3089;48.202;11.510;2023-12-07T12:51:22;6.80;;;3.63;;
6117;SDS011;3089;48.202;11.510;2023-12-07T12:53:53;9.97;;;4.20;;
6117;SDS011;3089;48.202;11.510;2023-12-07T12:56:24;6.50;;;3.50;;
6117;SDS011;3089;48.202;11.510;2023-12-07T12:58:53;9.67;;;4.50;;
6117;SDS011;3089;48.202;11.510;2023-12-07T13:01:29;12.50;;;4.30;;
6117;SDS011;3089;48.202;11.510;2023-12-07T13:03:58;7.00;;;3.43;;
6117;SDS011;3089;48.202;11.510;2023-12-07T13:06:26;9.37;;;4.50;;
6117;SDS011;3089;48.202;11.510;2023-12-07T13:08:55;7.97;;;3.60;;
6117;SDS011;3089;48.202;11.510;2023-12-07T13:11:25;7.27;;;3.37;;
6117;SDS011;3089;48.202;11.510;2023-12-07T13:13:54;9.70;;;4.10;;
6117;SDS011;3089;48.202;11.510;2023-12-07T13:16:22;14.57;;;5.10;;
6117;SDS011;3089;48.202;11.510;2023-12-07T13:18:50;10.17;;;3.80;;
6117;SDS011;3089;48.202;11.510;2023-12-07T13:21:19;11.57;;;4.23;;
6117;SDS011;3089;48.202;11.510;2023-12-07T13:23:49;8.77;;;3.90;;
6117;SDS011;3089;48.202;11.510;2023-12-07T13:26:18;10.63;;;4.30;;
6117;SDS011;3089;48.202;11.510;2023-12-07T13:28:51;7.83;;;3.63;;
6117;SDS011;3089;48.202;11.510;2023-12-07T13:31:19;13.43;;;4.50;;
6117;SDS011;3089;48.202;11.510;2023-12-07T13:33:49;12.73;;;4.73;;
6117;SDS011;3089;48.202;11.510;2023-12-07T13:36:23;16.20;;;6.73;;
6117;SDS011;3089;48.202;11.510;2023-12-07T13:38:53;12.40;;;5.37;;
6117;SDS011;3089;48.202;11.510;2023-12-07T13:41:21;17.63;;;5.67;;
6117;SDS011;3089;48.202;11.510;2023-12-07T13:43:51;12.43;;;4.80;;
6117;SDS011;3089;48.202;11.510;2023-12-07T13:46:19;8.47;;;4.30;;
6117;SDS011;3089;48.202;11.510;2023-12-07T13:48:48;14.00;;;5.93;;
6117;SDS011;3089;48.202;11.510;2023-12-07T13:51:16;12.67;;;5.40;;
6117;SDS011;3089;48.202;11.510;2023-12-07T13:53:46;13.80;;;6.30;;
6117;SDS011;3089;48.202;11.510;2023-12-07T13:56:15;12.47;;;5.10;;
6117;SDS011;3089;48.202;11.510;2023-12-07T13:58:43;10.27;;;5.00;;
6117;SDS011;3089;48.202;11.510;2023-12-07T14:01:13;11.10;;;5.10;;
6117;SDS011;3089;48.202;11.510;2023-12-07T14:03:41;13.73;;;5.07;;
6117;SDS011;3089;48.202;11.510;2023-12-07T14:06:10;9.80;;;4.33;;
6117;SDS011;3089;48.202;11.510;2023-12-07T14:08:52;12.23;;;5.27;;
6117;SDS011;3089;48.202;11.510;2023-12-07T14:11:21;8.70;;;3.90;;
6117;SDS011;3089;48.202;11.510;2023-12-07T14:13:49;9.10;;;4.17;;
6117;SDS011;3089;48.202;11.510;2023-12-07T14:16:22;11.23;;;4.77;;
6117;SDS011;3089;48.202;11.510;2023-12-07T14:19:10;12.13;;;5.50;;
6117;SDS011;3089;48.202;11.510;2023-12-07T14:21:40;12.40;;;6.10;;
6117;SDS011;3089;48.202;11.510;2023-12-07T14:24:21;10.83;;;6.33;;
6117;SDS011;3089;48.202;11.510;2023-12-07T14:26:50;12.87;;;6.73;;
6117;SDS011;3089;48.202;11.510;2023-12-07T14:29:19;15.43;;;7.50;;
6117;SDS011;3089;48.202;11.510;2023-12-07T14:31:54;12.20;;;6.83;;
6117;SDS011;3089;48.202;11.510;2023-12-07T14:34:23;13.70;;;6.83;;
6117;SDS011;3089;48.202;11.510;2023-12-07T14:37:01;12.57;;;7.00;;
6117;SDS011;3089;48.202;11.510;2023-12-07T14:39:32;11.73;;;6.40;;
6117;SDS011;3089;48.202;11.510;2023-12-07T14:42:00;17.57;;;7.00;;
6117;SDS011;3089;48.202;11.510;2023-12-07T14:44:29;13.30;;;7.43;;
6117;SDS011;3089;48.202;11.510;2023-12-07T14:46:59;12.13;;;7.10;;
6117;SDS011;3089;48.202;11.510;2023-12-07T14:49:27;14.73;;;6.80;;
6117;SDS011;3089;48.202;11.510;2023-12-07T14:51:55;12.97;;;6.40;;
6117;SDS011;3089;48.202;11.510;2023-12-07T14:54:25;14.37;;;5.80;;
6117;SDS011;3089;48.202;11.510;2023-12-07T14:56:56;13.53;;;5.33;;
6117;SDS011;3089;48.202;11.510;2023-12-07T14:59:25;10.87;;;5.27;;
6117;SDS011;3089;48.202;11.510;2023-12-07T15:01:53;7.50;;;4.93;;
6117;SDS011;3089;48.202;11.510;2023-12-07T15:04:22;9.30;;;5.10;;
6117;SDS011;3089;48.202;11.510;2023-12-07T15:06:59;8.37;;;4.93;;
6117;SDS011;3089;48.202;11.510;2023-12-07T15:09:30;11.90;;;6.13;;